메인 페이지
METAR-TAF:

METAR-TAF

공항 :

Évreux, 프랑스

위도: 49-01N, 경도: 001-13E, 고도: 141m

현재 날씨관측

예보는 18분 전, 03:30시(UTC)에 발표되었습니다.
여러 방향의 바람 2kt
온도 13°C
습도 94%
기압 1015 hPa
시정: 9000m
고도 800ft 상공 구름 조금
고도 2500ft 상공 구름 많음
고도 3900ft 상공 흐림

METAR: LFOE 130330Z AUTO VRB02KT 9000 FEW008 BKN025 OVC039 13/12 Q1015 NOSIG

시각: 05:48 (03:48 UTC)

예보

예보는 1 시간 48분 전, 02:00시(UTC)에 발표되었습니다.
예보 대상 시간: 13일 03시부터 14일 03시까지 (UTC)
서북서3kt
시정 10km 이상
고도 2000ft 상공 구름 많음
고도 4000ft 상공 구름 많음
고도 7000ft 상공 구름 많음
일시적
13일 13시부터 13일 19시까지 (UTC)
여러 방향의 바람 10kt, 순간 최대 풍속 20kt
시정: 4000m
고도 3000ft 상공 구름 많음, 적란운.
소나기
전환 중
13일 20시부터 13일 22시까지 (UTC)
고도 4000ft 상공 구름 보통
확률 40%
14일 00시부터 14일 03시까지 (UTC)
시정: 4000m
박무,

TAF: LFOE 130200Z 1303/1403 29003KT 9999 BKN020 BKN040 BKN070 TEMPO 1313/1319 VRB10G20KT 4000 SHRA BKN030CB BECMG 1320/1322 SCT040 PROB40 1400/1403 4000 BR

4,000개 이상의 공항 관측 자료 및 예보 (METAR 및 TAF 보고).

지도상에서 검색 가능한 기상관측소가 노란 점과 빨간 점으로 표시되어 있습니다.

기상관측소 명을 보려면 표시 위로 마우스를 이동하세요.

날씨 관측과 예보를 보려면 클릭하세요.

지도 변경 : 확대하려면 엑스 표시가 있는 녹색 버튼, 축소하려면 빼기 표시가 있는 녹색 버튼, 다음 페이지의 지도를 보려면 녹색 화살표를 클릭하세요.


METAR-TAF: